Time;durP1;ratioP1;P1;durP2;ratioP2;P2;SDS_P1;SDS_P2;PMS_P1;PMS_P2;Temp;Humidity;BMP_temperature;BMP_pressure;BME280_temperature;BME280_humidity;BME280_pressure;Samples;Min_cycle;Max_cycle;Signal;HPM_P1;HPM_P2
2022/05/28 00:01:54;;;;;;;;;;;;;;;7.36;100.00;97991.59;5154105;27;19923;-60
2022/05/28 00:04:20;;;;;;;;;;;;;;;7.22;100.00;97996.91;5154092;27;20010;-59
2022/05/28 00:06:46;;;;;;;;;;;;;;;7.23;100.00;98002.00;5154037;27;19922;-60
2022/05/28 00:09:12;;;;;;;;;;;;;;;7.38;100.00;98016.56;5154148;27;19923;-60
2022/05/28 00:11:41;;;;;;;;;;;;;;;7.20;100.00;98005.47;5154212;27;19946;-60
2022/05/28 00:14:07;;;;;;;;;;;;;;;7.32;100.00;98009.88;5154072;27;20039;-60
2022/05/28 00:16:33;;;;;;;;;;;;;;;7.36;100.00;98021.59;5153703;27;19968;-59
2022/05/28 00:19:00;;;;;;;;;;;;;;;7.30;100.00;98023.09;5153758;27;19922;-59
2022/05/28 00:21:27;;;;;;;;;;;;;;;7.18;100.00;98026.84;5153729;27;19927;-60
2022/05/28 00:23:54;;;;;;;;;;;;;;;6.96;100.00;98046.78;5153635;27;19934;-60
2022/05/28 00:26:20;;;;;;;;;;;;;;;7.13;100.00;98048.16;5153686;27;19923;-60
2022/05/28 00:28:46;;;;;;;;;;;;;;;6.89;100.00;98052.91;5153518;27;19923;-60
2022/05/28 00:31:12;;;;;;;;;;;;;;;7.15;100.00;98048.59;5153967;27;19923;-59
2022/05/28 00:33:38;;;;;;;;;;;;;;;7.13;100.00;98042.72;5153398;27;19923;-60
2022/05/28 00:36:05;;;;;;;;;;;;;;;6.86;100.00;98047.41;5153728;27;20059;-59
2022/05/28 00:38:31;;;;;;;;;;;;;;;7.11;100.00;98025.97;5153451;27;19927;-59
2022/05/28 00:40:59;;;;;;;;;;;;;;;6.96;100.00;98042.09;5153441;27;19930;-60
2022/05/28 00:43:25;;;;;;;;;;;;;;;7.10;100.00;98046.19;5153472;27;20386;-60
2022/05/28 00:45:54;;;;;;;;;;;;;;;7.05;100.00;98050.81;5153182;27;19923;-60
2022/05/28 00:48:23;;;;;;;;;;;;;;;6.92;100.00;98062.28;5153422;27;19923;-59
2022/05/28 00:50:49;;;;;;;;;;;;;;;7.04;100.00;98051.19;5153087;27;19923;-59
2022/05/28 00:53:15;;;;;;;;;;;;;;;7.06;100.00;98051.56;5153221;27;19934;-60
2022/05/28 00:55:42;;;;;;;;;;;;;;;7.03;100.00;98047.69;5153141;27;20297;-60
2022/05/28 00:58:09;;;;;;;;;;;;;;;7.06;100.00;98048.84;5153275;27;19930;-60
2022/05/28 01:00:35;;;;;;;;;;;;;;;7.04;100.00;98048.44;5153109;27;19934;-59
2022/05/28 01:03:06;;;;;;;;;;;;;;;7.05;100.00;98039.13;5153284;27;19923;-59
2022/05/28 01:05:34;;;;;;;;;;;;;;;7.08;100.00;98041.88;5152860;27;19923;-60
2022/05/28 01:08:07;;;;;;;;;;;;;;;7.06;100.00;98051.56;5153195;27;19930;-59
2022/05/28 01:10:38;;;;;;;;;;;;;;;7.08;100.00;98058.25;5153145;27;20437;-59
2022/05/28 01:13:07;;;;;;;;;;;;;;;7.02;100.00;98058.94;5152967;27;19922;-59
2022/05/28 01:15:36;;;;;;;;;;;;;;;7.02;100.00;98076.06;5152757;27;19929;-59
2022/05/28 01:18:05;;;;;;;;;;;;;;;7.03;100.00;98077.66;5152733;27;19923;-59
2022/05/28 01:20:32;;;;;;;;;;;;;;;7.00;100.00;98081.09;5152950;27;19923;-60
2022/05/28 01:23:08;;;;;;;;;;;;;;;7.00;100.00;98080.31;5152701;27;19923;-59
2022/05/28 01:25:40;;;;;;;;;;;;;;;7.02;100.00;98092.41;5152485;27;19930;-59
2022/05/28 01:28:09;;;;;;;;;;;;;;;7.00;100.00;98110.31;5152615;27;19930;-59
2022/05/28 01:30:38;;;;;;;;;;;;;;;6.82;100.00;98107.28;5152877;27;19927;-59
2022/05/28 01:33:05;;;;;;;;;;;;;;;6.96;100.00;98104.78;5152531;27;19930;-59
2022/05/28 01:35:32;;;;;;;;;;;;;;;6.90;100.00;98110.91;5152470;27;19922;-59
2022/05/28 01:37:59;;;;;;;;;;;;;;;6.92;100.00;98101.22;5152585;27;19923;-59
2022/05/28 01:40:26;;;;;;;;;;;;;;;6.92;100.00;98114.84;5152436;27;19934;-59
2022/05/28 01:42:53;;;;;;;;;;;;;;;6.95;100.00;98116.03;5152365;27;19923;-59
2022/05/28 01:45:21;;;;;;;;;;;;;;;6.97;100.00;98121.94;5152391;27;19930;-60
2022/05/28 01:47:49;;;;;;;;;;;;;;;6.86;100.00;98127.19;5152232;27;19930;-59
2022/05/28 01:50:17;;;;;;;;;;;;;;;6.93;100.00;98134.69;5152301;27;19933;-59
2022/05/28 01:52:43;;;;;;;;;;;;;;;6.91;100.00;98142.47;5151625;27;19923;-59
2022/05/28 01:55:10;;;;;;;;;;;;;;;6.84;100.00;98143.13;5152297;27;19923;-59
2022/05/28 01:57:36;;;;;;;;;;;;;;;6.71;100.00;98136.31;5152465;27;20457;-59
2022/05/28 02:00:03;;;;;;;;;;;;;;;6.90;100.00;98125.34;5152163;27;19922;-59
2022/05/28 02:02:30;;;;;;;;;;;;;;;6.93;100.00;98130.06;5152214;27;19975;-59
2022/05/28 02:04:55;;;;;;;;;;;;;;;6.77;100.00;98143.03;5152230;27;19922;-59
2022/05/28 02:07:21;;;;;;;;;;;;;;;6.75;100.00;98139.88;5152027;27;20436;-58
2022/05/28 02:09:49;;;;;;;;;;;;;;;6.79;100.00;98146.94;5151996;27;19930;-59
2022/05/28 02:12:20;;;;;;;;;;;;;;;6.88;100.00;98141.25;5152160;27;19929;-59
2022/05/28 02:14:58;;;;;;;;;;;;;;;6.91;100.00;98145.97;5151912;27;19927;-59
2022/05/28 02:17:29;;;;;;;;;;;;;;;6.87;100.00;98158.75;5152221;27;19948;-59
2022/05/28 02:20:01;;;;;;;;;;;;;;;6.98;100.00;98158.91;5151814;27;19927;-59
2022/05/28 02:22:33;;;;;;;;;;;;;;;7.03;100.00;98158.59;5151721;27;19948;-59
2022/05/28 02:25:02;;;;;;;;;;;;;;;7.22;100.00;98161.22;5151677;27;19930;-59
2022/05/28 02:27:29;;;;;;;;;;;;;;;7.40;100.00;98177.88;5151828;27;19922;-59
2022/05/28 02:29:55;;;;;;;;;;;;;;;7.55;100.00;98208.84;5151828;27;19950;-59
2022/05/28 02:32:23;;;;;;;;;;;;;;;7.54;100.00;98216.25;5151650;27;19923;-59
2022/05/28 02:34:50;;;;;;;;;;;;;;;8.05;100.00;98236.81;5151585;27;19930;-59
2022/05/28 02:37:18;;;;;;;;;;;;;;;8.69;100.00;98291.44;5151907;27;19923;-59
2022/05/28 02:39:44;;;;;;;;;;;;;;;9.53;100.00;98339.16;5151612;27;19966;-59
2022/05/28 02:42:10;;;;;;;;;;;;;;;9.96;100.00;98379.78;5151708;27;19922;-59
2022/05/28 02:44:36;;;;;;;;;;;;;;;10.28;100.00;98377.28;5151555;27;20416;-59
2022/05/28 02:47:03;;;;;;;;;;;;;;;10.61;100.00;98310.53;5151524;27;19934;-60
2022/05/28 02:49:29;;;;;;;;;;;;;;;10.82;100.00;98176.25;5151296;27;19930;-60
2022/05/28 02:51:55;;;;;;;;;;;;;;;11.11;100.00;98104.94;5151623;27;19927;-60
2022/05/28 02:54:22;;;;;;;;;;;;;;;11.52;100.00;97970.75;5151452;27;20282;-60
2022/05/28 02:56:48;;;;;;;;;;;;;;;11.46;100.00;97848.06;5151461;27;19927;-60
2022/05/28 02:59:15;;;;;;;;;;;;;;;11.77;100.00;97744.69;5151372;27;19923;-60
2022/05/28 03:01:41;;;;;;;;;;;;;;;12.07;100.00;97603.94;5151385;27;19988;-60
2022/05/28 03:04:07;;;;;;;;;;;;;;;12.46;100.00;97572.38;5151437;27;19927;-60
2022/05/28 03:06:35;;;;;;;;;;;;;;;12.42;100.00;97382.78;5154390;27;19923;-60
2022/05/28 03:09:01;;;;;;;;;;;;;;;12.82;100.00;97349.06;5154878;27;20022;-60
2022/05/28 03:11:28;;;;;;;;;;;;;;;12.74;100.00;97224.72;5154859;27;19923;-60
2022/05/28 03:13:54;;;;;;;;;;;;;;;13.00;100.00;97250.47;5154876;27;20359;-61
2022/05/28 03:16:20;;;;;;;;;;;;;;;13.19;100.00;97183.59;5154747;27;19923;-60
2022/05/28 03:18:46;;;;;;;;;;;;;;;13.47;100.00;97133.81;5155058;27;19929;-60
2022/05/28 03:21:12;;;;;;;;;;;;;;;13.75;100.00;97096.44;5154860;27;19923;-60
2022/05/28 03:23:38;;;;;;;;;;;;;;;13.85;100.00;96985.22;5154701;27;20370;-61
2022/05/28 03:26:11;;;;;;;;;;;;;;;14.16;100.00;96990.97;5154758;27;19958;-61
2022/05/28 03:28:38;;;;;;;;;;;;;;;14.54;100.00;96933.03;5154621;27;20378;-61
2022/05/28 03:31:04;;;;;;;;;;;;;;;14.82;100.00;96934.03;5154722;27;19930;-61
2022/05/28 03:33:30;;;;;;;;;;;;;;;14.75;100.00;96914.97;5154644;27;19926;-61
2022/05/28 03:35:55;;;;;;;;;;;;;;;13.96;100.00;96910.50;5154494;27;19971;-61
2022/05/28 03:38:21;;;;;;;;;;;;;;;13.39;100.00;96959.81;5154430;27;19927;-61
2022/05/28 03:40:47;;;;;;;;;;;;;;;12.63;100.00;97057.25;5154362;27;19952;-60
2022/05/28 03:43:13;;;;;;;;;;;;;;;12.21;100.00;97196.38;5154432;27;19923;-61
2022/05/28 03:45:40;;;;;;;;;;;;;;;12.10;100.00;97289.22;5154629;27;19929;-60
2022/05/28 03:48:08;;;;;;;;;;;;;;;11.73;100.00;97411.78;5154083;27;19927;-60
2022/05/28 03:50:34;;;;;;;;;;;;;;;11.29;100.00;97504.09;5154391;27;19929;-60
2022/05/28 03:53:00;;;;;;;;;;;;;;;10.99;100.00;97607.03;5154208;27;20385;-60
2022/05/28 03:55:26;;;;;;;;;;;;;;;10.84;100.00;97748.16;5154405;27;19927;-60
2022/05/28 03:57:51;;;;;;;;;;;;;;;10.59;100.00;97811.31;5154324;27;19922;-60
2022/05/28 04:00:18;;;;;;;;;;;;;;;10.63;100.00;97938.19;5154134;27;19927;-60
2022/05/28 04:02:44;;;;;;;;;;;;;;;10.56;100.00;97982.03;5154233;27;19929;-60
2022/05/28 04:05:10;;;;;;;;;;;;;;;10.50;100.00;97987.13;5153996;27;20429;-60
2022/05/28 04:07:37;;;;;;;;;;;;;;;10.54;100.00;98009.06;5153926;27;20046;-60
2022/05/28 04:10:03;;;;;;;;;;;;;;;10.23;100.00;98025.06;5154032;27;20297;-60
2022/05/28 04:12:30;;;;;;;;;;;;;;;10.33;100.00;98068.16;5153834;27;19944;-60
2022/05/28 04:14:56;;;;;;;;;;;;;;;10.64;100.00;98076.78;5153793;27;19923;-60
2022/05/28 04:17:22;;;;;;;;;;;;;;;10.71;100.00;98016.47;5153882;27;20374;-60
2022/05/28 04:19:49;;;;;;;;;;;;;;;10.97;100.00;97963.16;5153752;27;19929;-60
2022/05/28 04:22:15;;;;;;;;;;;;;;;11.83;100.00;97751.31;5153936;27;19923;-60
2022/05/28 04:24:41;;;;;;;;;;;;;;;11.80;100.00;97658.00;5153579;27;19927;-60
2022/05/28 04:27:07;;;;;;;;;;;;;;;11.82;100.00;97625.41;5153675;27;19930;-60
2022/05/28 04:29:33;;;;;;;;;;;;;;;11.55;100.00;97645.31;5153608;27;19923;-60
2022/05/28 04:31:59;;;;;;;;;;;;;;;11.56;100.00;97677.03;5153736;27;19926;-60
2022/05/28 04:34:25;;;;;;;;;;;;;;;11.48;100.00;97780.63;5153565;27;19927;-60
2022/05/28 04:36:51;;;;;;;;;;;;;;;11.47;100.00;97811.22;5153423;27;19923;-60
2022/05/28 04:39:17;;;;;;;;;;;;;;;12.08;100.00;97773.06;5153380;27;20358;-60
2022/05/28 04:41:43;;;;;;;;;;;;;;;12.03;100.00;97674.63;5153210;27;20017;-60
2022/05/28 04:44:09;;;;;;;;;;;;;;;12.45;100.00;97669.75;5153666;27;20021;-60
2022/05/28 04:46:35;;;;;;;;;;;;;;;12.26;100.00;97665.69;5153203;27;19926;-60
2022/05/28 04:49:01;;;;;;;;;;;;;;;12.51;100.00;97617.88;5153305;27;19991;-61
2022/05/28 04:51:27;;;;;;;;;;;;;;;12.11;100.00;97614.88;5153357;27;19927;-60
2022/05/28 04:53:53;;;;;;;;;;;;;;;12.12;100.00;97643.91;5153195;27;20301;-60
2022/05/28 04:56:19;;;;;;;;;;;;;;;12.13;100.00;97673.72;5153374;27;19933;-60
2022/05/28 04:58:45;;;;;;;;;;;;;;;12.14;100.00;97708.22;5153482;27;20803;-61
2022/05/28 05:01:12;;;;;;;;;;;;;;;12.12;100.00;97691.38;5153237;27;20409;-60
2022/05/28 05:03:37;;;;;;;;;;;;;;;12.12;100.00;97716.09;5152947;27;20345;-61
2022/05/28 05:06:03;;;;;;;;;;;;;;;13.73;100.00;97617.38;5152798;27;19930;-60
2022/05/28 05:08:30;;;;;;;;;;;;;;;14.22;100.00;97267.50;5152986;27;19923;-60
2022/05/28 05:10:57;;;;;;;;;;;;;;;14.76;100.00;97155.72;5153342;27;19923;-60
2022/05/28 05:13:23;;;;;;;;;;;;;;;16.06;100.00;96992.66;5152696;27;19926;-60
2022/05/28 05:15:48;;;;;;;;;;;;;;;15.99;100.00;96917.13;5152995;27;19929;-61
2022/05/28 05:18:14;;;;;;;;;;;;;;;17.01;100.00;96908.97;5152847;27;19923;-60
2022/05/28 05:20:40;;;;;;;;;;;;;;;17.44;100.00;96932.75;5152759;27;20369;-60
2022/05/28 05:23:06;;;;;;;;;;;;;;;17.11;100.00;96938.94;5152870;27;19922;-60
2022/05/28 05:25:32;;;;;;;;;;;;;;;16.68;100.00;96938.00;5152606;27;19922;-60
2022/05/28 05:27:59;;;;;;;;;;;;;;;16.65;100.00;96927.06;5151733;27;20297;-60
2022/05/28 05:30:25;;;;;;;;;;;;;;;16.29;100.00;96917.50;5152665;27;19945;-60
2022/05/28 05:32:51;;;;;;;;;;;;;;;15.33;100.00;96924.75;5152580;27;19923;-60
2022/05/28 05:35:17;;;;;;;;;;;;;;;14.60;100.00;96930.50;5152483;27;20064;-60
2022/05/28 05:37:43;;;;;;;;;;;;;;;14.24;100.00;96963.94;5152733;27;19923;-60
2022/05/28 05:40:09;;;;;;;;;;;;;;;13.88;100.00;96992.59;5152355;27;19930;-60
2022/05/28 05:42:36;;;;;;;;;;;;;;;13.92;100.00;97026.31;5152705;27;19923;-60
2022/05/28 05:45:02;;;;;;;;;;;;;;;13.60;100.00;97065.81;5152195;27;19922;-61
2022/05/28 05:47:28;;;;;;;;;;;;;;;13.54;100.00;97144.63;5152400;27;19929;-60
2022/05/28 05:49:54;;;;;;;;;;;;;;;13.67;100.00;97159.22;5152298;27;19923;-60
2022/05/28 05:52:20;;;;;;;;;;;;;;;13.39;100.00;97149.69;5152354;27;19945;-60
2022/05/28 05:54:46;;;;;;;;;;;;;;;14.17;100.00;97218.47;5152099;27;19923;-60
2022/05/28 05:57:12;;;;;;;;;;;;;;;15.62;100.00;97034.16;5152569;27;20011;-60
2022/05/28 05:59:38;;;;;;;;;;;;;;;16.53;100.00;96934.31;5152259;27;19923;-60
2022/05/28 06:02:05;;;;;;;;;;;;;;;16.66;100.00;96914.78;5152268;27;19927;-60
2022/05/28 06:04:31;;;;;;;;;;;;;;;16.63;100.00;96926.78;5151911;27;19923;-60
2022/05/28 06:06:56;;;;;;;;;;;;;;;15.85;100.00;96956.34;5151995;27;19923;-60
2022/05/28 06:09:22;;;;;;;;;;;;;;;15.56;100.00;96920.75;5151942;27;19987;-60
2022/05/28 06:11:48;;;;;;;;;;;;;;;15.45;100.00;96929.41;5152267;27;19975;-60
2022/05/28 06:14:14;;;;;;;;;;;;;;;15.32;100.00;96922.44;5152019;27;19974;-60
2022/05/28 06:16:40;;;;;;;;;;;;;;;15.22;100.00;96935.41;5152044;27;20039;-60
2022/05/28 06:19:08;;;;;;;;;;;;;;;16.41;100.00;96916.59;5151894;27;19923;-60
2022/05/28 06:21:35;;;;;;;;;;;;;;;16.85;100.00;96930.19;5151851;27;19930;-60
2022/05/28 06:24:01;;;;;;;;;;;;;;;16.51;100.00;96927.69;5151970;27;19923;-60
2022/05/28 06:26:27;;;;;;;;;;;;;;;16.15;100.00;96924.38;5151662;27;19975;-61
2022/05/28 06:28:54;;;;;;;;;;;;;;;16.26;100.00;96920.41;5151836;27;20409;-61
2022/05/28 06:31:20;;;;;;;;;;;;;;;16.06;100.00;96926.34;5151749;27;19923;-61
2022/05/28 06:33:46;;;;;;;;;;;;;;;15.43;100.00;96914.53;5151938;27;19923;-60
2022/05/28 06:36:13;;;;;;;;;;;;;;;15.52;100.00;96922.84;5151680;27;19923;-61
2022/05/28 06:38:39;;;;;;;;;;;;;;;14.70;100.00;96923.06;5151557;27;19930;-61
2022/05/28 06:41:05;;;;;;;;;;;;;;;14.66;100.00;96938.94;5155382;27;19938;-61
2022/05/28 06:43:31;;;;;;;;;;;;;;;14.25;100.00;96935.16;5155426;27;19923;-61
2022/05/28 06:46:00;;;;;;;;;;;;;;;14.59;100.00;96946.28;5155138;27;20329;-60
2022/05/28 06:48:26;;;;;;;;;;;;;;;14.70;100.00;96940.38;5154999;27;19922;-61
2022/05/28 06:51:03;;;;;;;;;;;;;;;15.10;100.00;96961.09;5155090;27;19923;-60
2022/05/28 06:53:30;;;;;;;;;;;;;;;15.58;100.00;96934.09;5154964;27;20380;-61
2022/05/28 06:55:56;;;;;;;;;;;;;;;15.62;100.00;96926.44;5154960;27;19923;-60
2022/05/28 06:58:22;;;;;;;;;;;;;;;15.69;100.00;96918.69;5154916;27;19929;-60
2022/05/28 07:00:48;;;;;;;;;;;;;;;14.94;100.00;96915.91;5154738;27;20401;-61
2022/05/28 07:03:15;;;;;;;;;;;;;;;14.65;100.00;96924.41;5154954;27;19923;-60
2022/05/28 07:05:41;;;;;;;;;;;;;;;14.25;100.00;96932.41;5155193;27;19927;-60
2022/05/28 07:08:07;;;;;;;;;;;;;;;14.60;100.00;96938.78;5154761;27;19922;-60
2022/05/28 07:10:33;;;;;;;;;;;;;;;16.28;100.00;96926.25;5155015;27;19930;-60
2022/05/28 07:12:59;;;;;;;;;;;;;;;17.68;100.00;96988.25;5155035;27;19930;-60
2022/05/28 07:15:25;;;;;;;;;;;;;;;18.21;100.00;97053.59;5154676;27;20023;-61
2022/05/28 07:17:51;;;;;;;;;;;;;;;18.11;100.00;97078.56;5155087;27;19964;-61
2022/05/28 07:20:17;;;;;;;;;;;;;;;17.62;100.00;97048.28;5154539;27;19923;-61
2022/05/28 07:22:43;;;;;;;;;;;;;;;17.03;100.00;97011.72;5154700;27;19923;-61
2022/05/28 07:25:09;;;;;;;;;;;;;;;16.75;100.00;96956.31;5154344;27;19923;-61
2022/05/28 07:27:36;;;;;;;;;;;;;;;16.10;100.00;96991.31;5154479;27;20417;-61
2022/05/28 07:30:03;;;;;;;;;;;;;;;15.76;100.00;96967.34;5154631;27;19922;-60
2022/05/28 07:32:30;;;;;;;;;;;;;;;15.14;100.00;96942.41;5154749;27;20301;-60
2022/05/28 07:34:56;;;;;;;;;;;;;;;15.13;100.00;96927.06;5154381;27;20393;-60
2022/05/28 07:37:22;;;;;;;;;;;;;;;14.85;100.00;96935.13;5154552;27;19923;-60
2022/05/28 07:39:48;;;;;;;;;;;;;;;14.71;100.00;96963.22;5154192;27;19923;-61
2022/05/28 07:42:14;;;;;;;;;;;;;;;14.90;100.00;96953.88;5154294;27;19923;-60
2022/05/28 07:44:41;;;;;;;;;;;;;;;15.29;100.00;96941.47;5154477;27;19971;-60
2022/05/28 07:47:07;;;;;;;;;;;;;;;15.13;100.00;96938.09;5154410;27;19923;-61
2022/05/28 07:49:35;;;;;;;;;;;;;;;14.98;100.00;96948.88;5154497;27;19923;-60
2022/05/28 07:52:01;;;;;;;;;;;;;;;14.76;100.00;96930.34;5153712;27;19926;-60
2022/05/28 07:54:27;;;;;;;;;;;;;;;14.67;100.00;96951.53;5154441;27;20347;-60
2022/05/28 07:56:53;;;;;;;;;;;;;;;14.46;100.00;96973.06;5154204;27;19923;-60
2022/05/28 07:59:19;;;;;;;;;;;;;;;14.86;100.00;96975.31;5154210;27;20396;-60
2022/05/28 08:01:46;;;;;;;;;;;;;;;14.57;100.00;96937.66;5153943;27;19952;-60
2022/05/28 08:04:12;;;;;;;;;;;;;;;14.71;100.00;96936.41;5154240;27;19923;-60
2022/05/28 08:06:38;;;;;;;;;;;;;;;14.25;100.00;96937.91;5153834;27;19930;-60
2022/05/28 08:09:05;;;;;;;;;;;;;;;13.83;100.00;96951.84;5153952;27;19930;-60
2022/05/28 08:11:31;;;;;;;;;;;;;;;12.64;100.00;97113.78;5153802;27;20015;-60
2022/05/28 08:13:57;;;;;;;;;;;;;;;12.39;100.00;97429.56;5153685;27;19923;-60
2022/05/28 08:16:23;;;;;;;;;;;;;;;12.32;100.00;97746.47;5153984;27;19929;-60
2022/05/28 08:18:49;;;;;;;;;;;;;;;12.75;100.00;97954.16;5153678;27;19923;-60
2022/05/28 08:24:00;;;;;;;;;;;;;;;12.91;100.00;98157.94;5153765;27;19930;-60
2022/05/28 08:26:26;;;;;;;;;;;;;;;12.84;100.00;98208.28;5153796;27;19926;-60
2022/05/28 08:28:53;;;;;;;;;;;;;;;12.66;100.00;98216.66;5153539;27;19948;-60
2022/05/28 08:31:19;;;;;;;;;;;;;;;12.46;100.00;98237.53;5153892;27;20342;-60
2022/05/28 08:33:46;;;;;;;;;;;;;;;12.38;100.00;98286.28;5153816;27;19927;-60
2022/05/28 08:36:13;;;;;;;;;;;;;;;12.24;100.00;98292.59;5153690;27;20294;-60
2022/05/28 08:38:39;;;;;;;;;;;;;;;12.24;100.00;98352.28;5153441;27;19930;-60
2022/05/28 08:41:08;;;;;;;;;;;;;;;12.14;100.00;98210.22;5153122;27;19971;-60
2022/05/28 08:43:36;;;;;;;;;;;;;;;11.89;100.00;98232.25;5153274;27;19923;-60
2022/05/28 08:46:03;;;;;;;;;;;;;;;11.85;100.00;98306.41;5153359;27;19923;-60
2022/05/28 08:48:35;;;;;;;;;;;;;;;11.72;100.00;98333.44;5153214;27;19923;-60
2022/05/28 08:51:03;;;;;;;;;;;;;;;11.53;100.00;98386.00;5153101;27;19923;-60
2022/05/28 08:53:34;;;;;;;;;;;;;;;11.48;100.00;98433.03;5153225;27;19923;-60
2022/05/28 08:56:01;;;;;;;;;;;;;;;11.68;100.00;98448.00;5152996;27;19929;-60
2022/05/28 08:58:28;;;;;;;;;;;;;;;11.17;100.00;98451.78;5153297;27;19930;-60
2022/05/28 09:00:57;;;;;;;;;;;;;;;11.90;100.00;98456.31;5152757;27;19923;-60
2022/05/28 09:03:25;;;;;;;;;;;;;;;12.35;100.00;98456.69;5151606;27;19930;-60
2022/05/28 09:05:53;;;;;;;;;;;;;;;12.34;100.00;98425.69;5153059;27;19922;-60
2022/05/28 09:08:24;;;;;;;;;;;;;;;13.84;100.00;98330.63;5152969;27;20491;-60
2022/05/28 09:10:53;;;;;;;;;;;;;;;15.29;100.00;98044.97;5152809;27;19923;-60
2022/05/28 09:13:23;;;;;;;;;;;;;;;16.37;100.00;97858.22;5152672;27;19930;-60
2022/05/28 09:15:49;;;;;;;;;;;;;;;17.61;100.00;97507.47;5152831;27;20450;-60
2022/05/28 09:18:16;;;;;;;;;;;;;;;18.07;100.00;97044.69;5152805;27;19950;-60
2022/05/28 09:20:43;;;;;;;;;;;;;;;18.64;100.00;97024.59;5153062;27;19923;-61
2022/05/28 09:23:10;;;;;;;;;;;;;;;19.14;100.00;96941.59;5152606;27;19966;-61
2022/05/28 09:25:40;;;;;;;;;;;;;;;18.83;100.00;96952.31;5152828;27;19923;-61
2022/05/28 09:28:16;;;;;;;;;;;;;;;18.72;100.00;96981.38;5152832;27;19923;-61
2022/05/28 09:30:46;;;;;;;;;;;;;;;19.21;100.00;96965.44;5152837;27;20265;-61
2022/05/28 09:33:25;;;;;;;;;;;;;;;18.99;100.00;97046.28;5152706;27;19923;-61
2022/05/28 09:35:59;;;;;;;;;;;;;;;18.43;100.00;97047.81;5152478;27;19930;-61
2022/05/28 09:38:29;;;;;;;;;;;;;;;18.13;100.00;96983.06;5152914;27;20409;-61
2022/05/28 09:41:01;;;;;;;;;;;;;;;17.43;100.00;96975.53;5152396;27;20479;-61
2022/05/28 09:43:41;;;;;;;;;;;;;;;18.62;100.00;96943.81;5152530;27;19971;-61
2022/05/28 09:46:12;;;;;;;;;;;;;;;19.42;100.00;97016.34;5152508;27;19922;-61
2022/05/28 09:48:38;;;;;;;;;;;;;;;19.42;100.00;97111.59;5152400;27;19922;-61
2022/05/28 09:51:19;;;;;;;;;;;;;;;20.16;100.00;97130.47;5152354;27;20266;-61
2022/05/28 09:56:35;;;;;;;;;;;;;;;17.78;100.00;97088.81;5152537;27;19929;-61
2022/05/28 09:59:04;;;;;;;;;;;;;;;18.81;100.00;97100.69;5152270;27;20313;-61
2022/05/28 10:01:30;;;;;;;;;;;;;;;18.19;100.00;97144.81;5152564;27;19926;-61
2022/05/28 10:06:47;;;;;;;;;;;;;;;18.27;100.00;97058.03;5152137;27;20301;-60
2022/05/28 10:09:14;;;;;;;;;;;;;;;18.70;100.00;97122.63;5152396;27;20373;-60
2022/05/28 10:11:48;;;;;;;;;;;;;;;18.75;100.00;97162.88;5152177;27;19923;-61
2022/05/28 10:14:16;;;;;;;;;;;;;;;19.34;100.00;97268.00;5151403;27;19923;-60
2022/05/28 10:16:46;;;;;;;;;;;;;;;19.52;100.00;97223.44;5151907;27;19923;-61
2022/05/28 10:19:16;;;;;;;;;;;;;;;19.73;100.00;97250.22;5152215;27;19958;-61
2022/05/28 10:21:47;;;;;;;;;;;;;;;18.61;100.00;97191.25;5151837;27;19923;-60
2022/05/28 10:24:15;;;;;;;;;;;;;;;18.97;100.00;97248.72;5151973;27;19967;-60
2022/05/28 10:26:45;;;;;;;;;;;;;;;18.50;100.00;97258.34;5151775;27;19923;-61
2022/05/28 10:29:16;;;;;;;;;;;;;;;18.19;100.00;97253.72;5151813;27;20343;-61
2022/05/28 10:31:45;;;;;;;;;;;;;;;17.68;100.00;97306.91;5151890;27;19923;-61
2022/05/28 10:34:21;;;;;;;;;;;;;;;17.61;100.00;97260.88;5151706;27;19930;-61
2022/05/28 10:36:47;;;;;;;;;;;;;;;17.76;100.00;97235.34;5151594;27;19923;-61
2022/05/28 10:39:14;;;;;;;;;;;;;;;17.58;100.00;97261.03;5151619;27;19930;-61
2022/05/28 10:41:42;;;;;;;;;;;;;;;17.60;100.00;97203.16;5151680;27;20301;-61
2022/05/28 10:44:08;;;;;;;;;;;;;;;17.15;100.00;97233.03;5151936;27;19923;-61
2022/05/28 10:46:45;;;;;;;;;;;;;;;16.54;100.00;97208.88;5151758;27;19922;-61
2022/05/28 10:49:18;;;;;;;;;;;;;;;16.74;100.00;97175.34;5151775;27;19930;-61
2022/05/28 10:51:56;;;;;;;;;;;;;;;16.27;100.00;97173.56;5151516;27;19931;-61
2022/05/28 10:54:29;;;;;;;;;;;;;;;15.97;100.00;97135.13;5151840;27;20498;-61
2022/05/28 10:57:03;;;;;;;;;;;;;;;15.89;100.00;97097.13;5151254;27;19927;-61
2022/05/28 10:59:39;;;;;;;;;;;;;;;15.64;100.00;97040.00;5151700;27;19923;-61
2022/05/28 11:02:11;;;;;;;;;;;;;;;15.47;100.00;97037.44;5151575;27;19926;-61
2022/05/28 11:04:48;;;;;;;;;;;;;;;15.18;100.00;96990.75;5151318;27;19923;-61
2022/05/28 11:07:29;;;;;;;;;;;;;;;15.16;100.00;97058.63;5151351;27;20275;-61
2022/05/28 11:10:01;;;;;;;;;;;;;;;15.18;100.00;97017.56;5151344;27;19923;-61
2022/05/28 11:12:48;;;;;;;;;;;;;;;15.06;100.00;96977.75;5151150;27;20473;-61
2022/05/28 11:15:30;;;;;;;;;;;;;;;14.95;100.00;96960.81;5151273;27;19930;-60
2022/05/28 11:18:01;;;;;;;;;;;;;;;14.84;100.00;96955.69;5151490;27;19923;-61
2022/05/28 11:20:36;;;;;;;;;;;;;;;14.76;100.00;96968.94;5151049;27;20344;-60
2022/05/28 11:23:13;;;;;;;;;;;;;;;14.33;100.00;96969.56;5151115;27;19922;-60
2022/05/28 11:25:47;;;;;;;;;;;;;;;13.72;100.00;97109.09;5151255;27;20389;-61
2022/05/28 11:28:22;;;;;;;;;;;;;;;13.88;100.00;97367.97;5154634;27;19929;-61
2022/05/28 11:30:51;;;;;;;;;;;;;;;14.00;100.00;97526.31;5154678;27;20381;-61
2022/05/28 11:33:20;;;;;;;;;;;;;;;14.28;100.00;97800.53;5154492;27;19923;-61
2022/05/28 11:35:48;;;;;;;;;;;;;;;14.50;100.00;97858.84;5154419;27;19927;-61
2022/05/28 11:38:16;;;;;;;;;;;;;;;14.68;100.00;97858.47;5154560;27;20454;-61
2022/05/28 11:40:50;;;;;;;;;;;;;;;14.52;100.00;97852.88;5154322;27;19923;-60
2022/05/28 11:43:19;;;;;;;;;;;;;;;14.53;100.00;97948.22;5154223;27;19923;-60
2022/05/28 11:45:48;;;;;;;;;;;;;;;14.62;100.00;97953.94;5154576;27;19927;-60
2022/05/28 11:48:17;;;;;;;;;;;;;;;14.42;100.00;98049.59;5154397;27;19923;-60
2022/05/28 11:53:34;;;;;;;;;;;;;;;14.36;100.00;98019.75;5154780;27;19930;-60
2022/05/28 11:56:04;;;;;;;;;;;;;;;14.48;100.00;98051.47;5154283;27;20317;-60
2022/05/28 11:58:32;;;;;;;;;;;;;;;14.66;100.00;98044.91;5154274;27;20309;-59
2022/05/28 12:01:01;;;;;;;;;;;;;;;14.19;100.00;97679.03;5154071;27;20029;-60
2022/05/28 12:03:28;;;;;;;;;;;;;;;14.55;100.00;97573.50;5154091;27;19952;-60
2022/05/28 12:05:56;;;;;;;;;;;;;;;14.65;100.00;97389.69;5153899;27;19930;-60
2022/05/28 12:08:27;;;;;;;;;;;;;;;14.63;100.00;97219.16;5154135;27;19951;-60
2022/05/28 12:10:55;;;;;;;;;;;;;;;14.55;100.00;97157.91;5154055;27;19934;-60
2022/05/28 12:13:30;;;;;;;;;;;;;;;14.53;100.00;97156.81;5153903;27;19923;-60
2022/05/28 12:16:02;;;;;;;;;;;;;;;14.34;100.00;97076.59;5154301;27;20071;-61
2022/05/28 12:18:28;;;;;;;;;;;;;;;14.49;100.00;97121.03;5154240;27;19923;-60
2022/05/28 12:20:58;;;;;;;;;;;;;;;14.13;100.00;97190.25;5153966;27;19923;-61
2022/05/28 12:23:28;;;;;;;;;;;;;;;13.87;100.00;97046.16;5153729;27;19929;-61
2022/05/28 12:25:55;;;;;;;;;;;;;;;13.28;100.00;97031.66;5153789;27;19923;-60
2022/05/28 12:28:25;;;;;;;;;;;;;;;13.05;100.00;97059.38;5153792;27;19922;-61
2022/05/28 12:30:53;;;;;;;;;;;;;;;12.84;100.00;97119.19;5153969;27;19934;-60
2022/05/28 12:33:27;;;;;;;;;;;;;;;12.91;100.00;97242.00;5153537;27;19923;-60
2022/05/28 12:35:58;;;;;;;;;;;;;;;12.64;100.00;97201.75;5153589;27;20397;-60
2022/05/28 12:38:36;;;;;;;;;;;;;;;12.51;100.00;97316.28;5153532;27;20343;-60
2022/05/28 12:41:03;;;;;;;;;;;;;;;11.82;100.00;97466.94;5153498;27;19930;-60
2022/05/28 12:43:31;;;;;;;;;;;;;;;11.39;100.00;97807.75;5153636;27;19923;-60
2022/05/28 12:45:58;;;;;;;;;;;;;;;11.24;100.00;98080.63;5153148;27;19922;-61
2022/05/28 12:48:26;;;;;;;;;;;;;;;11.06;100.00;98331.03;5153324;27;20300;-61
2022/05/28 12:51:01;;;;;;;;;;;;;;;10.67;100.00;98409.63;5153357;27;19941;-60
2022/05/28 12:53:28;;;;;;;;;;;;;;;10.46;100.00;98500.69;5153192;27;20408;-61